createdAt,value
2023-02-12T00:00:43.876Z,8.20
2023-02-12T00:03:11.230Z,8.20
2023-02-12T00:05:39.120Z,8.10
2023-02-12T00:08:06.063Z,8.10
2023-02-12T00:10:32.740Z,8.10
2023-02-12T00:12:59.335Z,8.10
2023-02-12T00:15:25.946Z,8.10
2023-02-12T00:17:52.557Z,8.00
2023-02-12T00:20:19.461Z,8.00
2023-02-12T00:22:46.033Z,8.00
2023-02-12T00:25:13.985Z,8.00
2023-02-12T00:27:40.621Z,8.00
2023-02-12T00:30:07.698Z,8.00
2023-02-12T00:32:34.289Z,8.00
2023-02-12T00:35:00.853Z,7.90
2023-02-12T00:37:27.425Z,8.00
2023-02-12T00:39:53.987Z,8.00
2023-02-12T00:42:20.620Z,8.00
2023-02-12T00:44:47.284Z,7.90
2023-02-12T00:47:13.997Z,7.90
2023-02-12T00:49:40.593Z,7.90
2023-02-12T00:52:07.190Z,9.50
2023-02-12T00:54:33.809Z,7.80
2023-02-12T00:57:00.672Z,7.90
2023-02-12T00:59:27.489Z,7.90
2023-02-12T01:01:55.437Z,8.10
2023-02-12T01:04:23.043Z,7.90
2023-02-12T01:06:49.719Z,7.90
2023-02-12T01:09:16.421Z,7.90
2023-02-12T01:11:43.116Z,7.90
2023-02-12T01:14:09.737Z,8.80
2023-02-12T01:16:37.012Z,7.90
2023-02-12T01:19:04.446Z,7.90
2023-02-12T01:21:34.083Z,7.80
2023-02-12T01:24:01.435Z,7.80
2023-02-12T01:26:28.998Z,7.80
2023-02-12T01:28:58.678Z,7.80
2023-02-12T01:31:27.662Z,6.90
2023-02-12T01:33:56.392Z,7.80
2023-02-12T01:36:24.189Z,7.80
2023-02-12T01:38:51.463Z,7.80
2023-02-12T01:41:21.249Z,7.80
2023-02-12T01:44:09.538Z,7.80
2023-02-12T01:46:36.588Z,7.80
2023-02-12T01:49:05.101Z,7.80
2023-02-12T01:51:33.200Z,7.80
2023-02-12T01:54:04.828Z,7.70
2023-02-12T01:56:32.168Z,7.70
2023-02-12T01:58:59.148Z,7.70
2023-02-12T02:01:29.186Z,7.70
2023-02-12T02:04:24.728Z,7.60
2023-02-12T02:07:03.146Z,7.90
2023-02-12T02:09:32.854Z,7.70
2023-02-12T02:12:18.353Z,7.70
2023-02-12T02:14:46.414Z,7.70
2023-02-12T02:17:38.620Z,7.80
2023-02-12T02:20:38.297Z,7.70
2023-02-12T02:23:29.246Z,7.70
2023-02-12T02:25:56.076Z,7.70
2023-02-12T02:28:57.656Z,7.80
2023-02-12T02:31:35.896Z,7.70
2023-02-12T02:34:22.348Z,7.80
2023-02-12T02:37:04.258Z,7.70
2023-02-12T02:39:38.913Z,7.70
2023-02-12T02:42:17.526Z,7.70
2023-02-12T02:44:55.233Z,7.80
2023-02-12T02:47:26.459Z,7.80
2023-02-12T02:49:59.250Z,7.70
2023-02-12T02:52:35.493Z,7.80
2023-02-12T02:55:07.430Z,7.80
2023-02-12T02:57:46.017Z,7.90
2023-02-12T03:00:37.468Z,7.90
2023-02-12T03:03:12.346Z,7.80
2023-02-12T03:05:46.278Z,7.70
2023-02-12T03:08:20.200Z,9.80
2023-02-12T03:10:50.187Z,7.70
2023-02-12T03:13:21.543Z,7.60
2023-02-12T03:16:00.236Z,7.60
2023-02-12T03:18:36.083Z,7.70
2023-02-12T03:21:09.240Z,7.70
2023-02-12T03:23:47.255Z,7.80
2023-02-12T03:26:40.428Z,7.80
2023-02-12T03:29:07.589Z,7.80
2023-02-12T03:31:46.461Z,7.70
2023-02-12T03:34:39.444Z,7.70
2023-02-12T03:37:11.540Z,7.80
2023-02-12T03:39:56.958Z,7.80
2023-02-12T03:42:23.661Z,7.80
2023-02-12T03:45:01.196Z,7.80
2023-02-12T03:47:56.190Z,7.80
2023-02-12T03:50:51.738Z,7.80
2023-02-12T03:53:18.516Z,7.80
2023-02-12T03:55:48.400Z,7.90
2023-02-12T03:58:21.240Z,7.90
2023-02-12T04:00:48.291Z,7.90
2023-02-12T04:03:14.989Z,7.90
2023-02-12T04:05:41.607Z,8.00
2023-02-12T04:08:11.183Z,7.90
2023-02-12T04:11:04.578Z,7.90
2023-02-12T04:13:45.834Z,7.90
2023-02-12T04:16:22.515Z,7.80
2023-02-12T04:18:49.673Z,7.80
2023-02-12T04:21:38.068Z,7.80
2023-02-12T04:24:25.630Z,7.80
2023-02-12T04:27:00.229Z,8.00
2023-02-12T04:29:45.939Z,7.90
2023-02-12T04:32:16.084Z,8.00
2023-02-12T04:35:05.089Z,7.90
2023-02-12T04:37:48.385Z,8.00
2023-02-12T04:40:18.034Z,8.10
2023-02-12T04:42:47.205Z,8.20
2023-02-12T04:45:23.824Z,8.20
2023-02-12T04:47:50.467Z,8.20
2023-02-12T04:50:17.340Z,8.20
2023-02-12T04:52:44.043Z,8.10
2023-02-12T04:55:10.891Z,8.10
2023-02-12T04:57:37.498Z,8.10
2023-02-12T05:00:10.013Z,8.20
2023-02-12T05:02:36.677Z,8.20
2023-02-12T05:05:04.223Z,8.20
2023-02-12T05:07:30.904Z,8.30
2023-02-12T05:09:57.536Z,8.20
2023-02-12T05:12:24.243Z,8.30
2023-02-12T05:14:50.894Z,8.40
2023-02-12T05:17:17.485Z,8.50
2023-02-12T05:19:44.118Z,8.40
2023-02-12T05:22:11.376Z,8.40
2023-02-12T05:24:38.004Z,8.40
2023-02-12T05:27:04.609Z,8.30
2023-02-12T05:29:31.207Z,8.30
2023-02-12T05:31:57.922Z,8.40
2023-02-12T05:34:24.614Z,8.30
2023-02-12T05:36:51.324Z,8.30
2023-02-12T05:39:17.935Z,8.40
2023-02-12T05:41:44.578Z,8.40
2023-02-12T05:44:15.123Z,8.40
2023-02-12T05:46:42.574Z,8.50
2023-02-12T05:49:10.396Z,8.50
2023-02-12T05:51:37.515Z,8.50
2023-02-12T05:54:05.524Z,8.60
2023-02-12T05:56:37.594Z,8.60
2023-02-12T05:59:07.273Z,8.60
2023-02-12T06:01:39.338Z,8.60
2023-02-12T06:04:10.513Z,8.60
2023-02-12T06:06:37.175Z,8.70
2023-02-12T06:09:03.905Z,8.60
2023-02-12T06:11:30.550Z,8.60
2023-02-12T06:13:57.136Z,8.60
2023-02-12T06:16:28.432Z,8.60
2023-02-12T06:18:56.438Z,8.60
2023-02-12T06:21:25.499Z,8.60
2023-02-12T06:23:53.215Z,8.50
2023-02-12T06:26:20.728Z,8.50
2023-02-12T06:28:47.871Z,8.50
2023-02-12T06:31:21.448Z,8.50
2023-02-12T06:33:48.493Z,8.50
2023-02-12T06:36:15.772Z,8.60
2023-02-12T06:38:42.654Z,8.60
2023-02-12T06:41:09.499Z,8.60
2023-02-12T06:43:36.692Z,8.60
2023-02-12T06:46:04.487Z,8.60
2023-02-12T06:48:31.892Z,8.70
2023-02-12T06:51:06.571Z,8.80
2023-02-12T06:53:34.370Z,8.80
2023-02-12T06:56:05.994Z,8.80
2023-02-12T06:58:32.891Z,8.80
2023-02-12T07:01:13.364Z,8.70
2023-02-12T07:03:41.534Z,8.60
2023-02-12T07:06:09.185Z,8.60
2023-02-12T07:08:36.590Z,8.40
2023-02-12T07:11:04.057Z,8.40
2023-02-12T07:13:31.178Z,8.40
2023-02-12T07:15:58.132Z,8.40
2023-02-12T07:18:24.941Z,8.40
2023-02-12T07:20:51.553Z,8.40
2023-02-12T07:23:18.168Z,8.50
2023-02-12T07:25:54.110Z,10.00
2023-02-12T07:28:20.947Z,8.60
2023-02-12T07:30:47.616Z,8.60
2023-02-12T07:33:14.243Z,8.50
2023-02-12T07:35:40.829Z,8.50
2023-02-12T07:38:07.411Z,8.50
2023-02-12T07:40:34.019Z,8.70
2023-02-12T07:43:00.758Z,8.70
2023-02-12T07:45:27.430Z,8.70
2023-02-12T07:47:54.056Z,8.70
2023-02-12T07:50:20.669Z,8.70
2023-02-12T07:52:50.194Z,8.80
2023-02-12T07:55:17.329Z,8.80
2023-02-12T07:57:43.940Z,8.90
2023-02-12T08:00:11.042Z,8.80
2023-02-12T08:02:37.772Z,8.70
2023-02-12T08:05:04.615Z,8.80
2023-02-12T08:07:31.262Z,8.80
2023-02-12T08:09:57.908Z,8.70
2023-02-12T08:12:24.629Z,8.80
2023-02-12T08:14:51.384Z,8.80
2023-02-12T08:17:17.974Z,8.70
2023-02-12T08:19:44.576Z,8.70
2023-02-12T08:22:11.203Z,8.60
2023-02-12T08:24:37.889Z,8.60
2023-02-12T08:27:05.406Z,8.70
2023-02-12T08:29:32.027Z,8.70
2023-02-12T08:32:01.965Z,8.80
2023-02-12T08:34:31.482Z,8.80
2023-02-12T08:36:58.804Z,8.80
2023-02-12T08:39:27.830Z,8.80
2023-02-12T08:41:56.201Z,8.80
2023-02-12T08:44:22.945Z,8.80
2023-02-12T08:46:51.710Z,8.80
2023-02-12T08:49:20.760Z,8.90
2023-02-12T08:51:49.611Z,8.90
2023-02-12T08:54:20.007Z,8.80
2023-02-12T08:56:46.757Z,8.90
2023-02-12T08:59:14.511Z,8.90
2023-02-12T09:01:42.308Z,9.00
2023-02-12T09:04:15.142Z,9.00
2023-02-12T09:06:41.783Z,9.10
2023-02-12T09:09:08.422Z,9.20
2023-02-12T09:11:35.622Z,9.20
2023-02-12T09:14:05.116Z,9.30
2023-02-12T09:16:34.204Z,9.20
2023-02-12T09:19:01.119Z,9.20
2023-02-12T09:21:27.878Z,9.20
2023-02-12T09:23:54.948Z,9.30
2023-02-12T09:26:23.642Z,9.30
2023-02-12T09:28:50.851Z,9.10
2023-02-12T09:31:22.929Z,9.10
2023-02-12T09:33:53.337Z,9.10
2023-02-12T09:36:21.445Z,9.20
2023-02-12T09:38:49.094Z,9.20
2023-02-12T09:41:46.502Z,9.20
2023-02-12T09:44:22.586Z,9.20
2023-02-12T09:46:54.090Z,9.10
2023-02-12T09:49:39.883Z,9.10
2023-02-12T09:52:13.686Z,9.20
2023-02-12T09:54:40.561Z,9.20
2023-02-12T09:57:19.686Z,9.30
2023-02-12T10:00:18.404Z,9.20
2023-02-12T10:02:45.212Z,9.10
2023-02-12T10:05:19.455Z,9.10
2023-02-12T10:07:53.810Z,9.20
2023-02-12T10:10:44.877Z,9.20
2023-02-12T10:13:43.606Z,9.00
2023-02-12T10:16:26.015Z,9.10
2023-02-12T10:19:21.819Z,9.10
2023-02-12T10:22:01.578Z,9.10
2023-02-12T10:25:00.119Z,9.10
2023-02-12T10:27:40.903Z,9.10
2023-02-12T10:30:22.664Z,9.10
2023-02-12T10:32:54.700Z,9.00
2023-02-12T10:35:23.705Z,9.10
2023-02-12T10:38:16.386Z,7.80
2023-02-12T10:40:45.133Z,9.10
2023-02-12T10:43:13.625Z,9.20
2023-02-12T10:45:42.294Z,9.10
2023-02-12T10:48:20.793Z,9.20
2023-02-12T10:51:02.386Z,9.20
2023-02-12T10:53:33.810Z,9.10
2023-02-12T10:56:17.392Z,9.10
2023-02-12T10:58:50.315Z,9.10
2023-02-12T11:01:25.908Z,9.10
2023-02-12T11:03:57.073Z,9.10
2023-02-12T11:06:28.669Z,9.20
2023-02-12T11:08:56.177Z,9.20
2023-02-12T11:11:31.246Z,9.20
2023-02-12T11:14:05.570Z,9.20
2023-02-12T11:16:39.998Z,9.20
2023-02-12T11:19:08.720Z,9.20
2023-02-12T11:21:36.441Z,9.20
2023-02-12T11:24:31.871Z,9.20
2023-02-12T11:27:25.951Z,9.20
2023-02-12T11:30:25.197Z,9.20
2023-02-12T11:32:53.047Z,9.20
2023-02-12T11:35:26.871Z,9.10
2023-02-12T11:37:56.423Z,9.20
2023-02-12T11:40:27.695Z,9.40
2023-02-12T11:43:01.063Z,9.30
2023-02-12T11:45:34.075Z,9.20
2023-02-12T11:48:01.346Z,9.20
2023-02-12T11:50:30.877Z,9.30
2023-02-12T11:53:06.834Z,9.40
2023-02-12T11:55:36.262Z,9.40
2023-02-12T11:58:14.145Z,9.30
2023-02-12T12:00:52.168Z,9.40
2023-02-12T12:03:23.550Z,9.30
2023-02-12T12:05:52.961Z,9.30
2023-02-12T12:08:31.823Z,9.30
2023-02-12T12:11:19.792Z,9.20
2023-02-12T12:14:07.570Z,9.30
2023-02-12T12:17:08.042Z,9.30
2023-02-12T12:19:52.382Z,9.30
2023-02-12T12:22:46.711Z,9.20
2023-02-12T12:25:20.889Z,9.20
2023-02-12T12:28:03.723Z,9.20
2023-02-12T12:30:40.782Z,9.30
2023-02-12T12:33:17.181Z,9.50
2023-02-12T12:35:55.732Z,9.60
2023-02-12T12:38:55.002Z,9.60
2023-02-12T12:42:00.424Z,9.50
2023-02-12T12:44:57.063Z,9.40
2023-02-12T12:47:37.620Z,9.30
2023-02-12T12:50:12.988Z,8.80
2023-02-12T12:53:00.622Z,9.50
2023-02-12T12:55:36.336Z,9.50
2023-02-12T12:58:14.726Z,9.40
2023-02-12T13:01:11.903Z,9.40
2023-02-12T13:03:54.498Z,9.50
2023-02-12T13:06:47.379Z,9.70
2023-02-12T13:09:23.077Z,10.00
2023-02-12T13:12:08.387Z,10.20
2023-02-12T13:14:52.548Z,10.20
2023-02-12T13:17:36.924Z,10.00
2023-02-12T13:20:22.271Z,8.40
2023-02-12T13:23:13.668Z,9.70
2023-02-12T13:25:52.265Z,9.60
2023-02-12T13:28:40.776Z,9.60
2023-02-12T13:31:34.075Z,9.50
2023-02-12T13:34:09.781Z,9.50
2023-02-12T13:36:37.818Z,9.40
2023-02-12T13:39:29.190Z,9.50
2023-02-12T13:42:16.868Z,9.50
2023-02-12T13:44:51.051Z,9.40
2023-02-12T13:47:35.787Z,9.50
2023-02-12T13:50:42.069Z,9.50
2023-02-12T13:53:39.858Z,9.60
2023-02-12T13:56:34.930Z,9.50
2023-02-12T13:59:01.856Z,9.60
2023-02-12T14:01:46.897Z,9.70
2023-02-12T14:04:28.941Z,9.80
2023-02-12T14:06:59.813Z,9.80
2023-02-12T14:09:35.246Z,9.80
2023-02-12T14:12:03.800Z,9.80
2023-02-12T14:14:33.787Z,11.00
2023-02-12T14:17:29.002Z,9.70
2023-02-12T14:20:06.182Z,9.60
2023-02-12T14:22:32.723Z,9.60
2023-02-12T14:25:02.616Z,9.50
2023-02-12T14:27:31.222Z,9.20
2023-02-12T14:30:06.977Z,9.30
2023-02-12T14:32:58.528Z,9.40
2023-02-12T14:35:39.276Z,9.40
2023-02-12T14:38:12.003Z,9.50
2023-02-12T14:40:46.848Z,9.40
2023-02-12T14:43:56.912Z,9.30
2023-02-12T14:46:23.698Z,9.40
2023-02-12T14:49:05.561Z,9.30
2023-02-12T14:51:43.346Z,9.40
2023-02-12T14:54:19.314Z,9.30
2023-02-12T14:56:49.346Z,9.20
2023-02-12T14:59:20.488Z,9.20
2023-02-12T15:01:49.044Z,9.30
2023-02-12T15:04:27.439Z,9.30
2023-02-12T15:07:03.571Z,9.30
2023-02-12T15:09:36.347Z,9.30
2023-02-12T15:12:10.866Z,9.30
2023-02-12T15:14:43.094Z,9.30
2023-02-12T15:17:20.113Z,9.20
2023-02-12T15:20:13.362Z,9.20
2023-02-12T15:22:40.942Z,9.20
2023-02-12T15:25:32.180Z,9.30
2023-02-12T15:28:33.713Z,9.30
2023-02-12T15:31:02.457Z,9.30
2023-02-12T15:33:32.405Z,9.30
2023-02-12T15:36:00.736Z,9.40
2023-02-12T15:38:36.969Z,9.40
2023-02-12T15:41:05.259Z,9.50
2023-02-12T15:43:36.774Z,9.50
2023-02-12T15:46:06.249Z,9.50
2023-02-12T15:48:35.514Z,9.50
2023-02-12T15:51:08.875Z,9.40
2023-02-12T15:53:36.153Z,9.40
2023-02-12T15:56:03.253Z,9.40
2023-02-12T15:58:42.874Z,9.40
2023-02-12T16:01:17.261Z,9.50
2023-02-12T16:03:44.056Z,9.50
2023-02-12T16:06:16.802Z,9.40
2023-02-12T16:08:49.111Z,9.30
2023-02-12T16:11:19.910Z,9.30
2023-02-12T16:13:50.685Z,9.30
2023-02-12T16:16:22.026Z,9.20
2023-02-12T16:19:23.288Z,9.20
2023-02-12T16:22:10.132Z,9.10
2023-02-12T16:24:58.819Z,9.10
2023-02-12T16:27:29.101Z,9.10
2023-02-12T16:29:59.492Z,9.10
2023-02-12T16:32:33.900Z,9.00
2023-02-12T16:35:11.397Z,9.00
2023-02-12T16:37:38.041Z,9.10
2023-02-12T16:40:13.844Z,9.10
2023-02-12T16:42:49.360Z,9.10
2023-02-12T16:45:28.243Z,9.10
2023-02-12T16:48:06.790Z,9.10
2023-02-12T16:50:45.920Z,9.10
2023-02-12T16:53:30.579Z,9.10
2023-02-12T16:55:58.532Z,9.10
2023-02-12T16:58:28.595Z,9.10
2023-02-12T17:00:57.114Z,9.00
2023-02-12T17:03:24.836Z,9.10
2023-02-12T17:05:52.431Z,9.00
2023-02-12T17:08:23.971Z,9.00
2023-02-12T17:10:51.295Z,9.10
2023-02-12T17:13:19.039Z,9.10
2023-02-12T17:15:57.369Z,9.10
2023-02-12T17:18:25.220Z,9.20
2023-02-12T17:20:55.747Z,9.20
2023-02-12T17:23:23.677Z,9.20
2023-02-12T17:25:50.393Z,7.70
2023-02-12T17:28:17.288Z,9.20
2023-02-12T17:30:44.771Z,9.20
2023-02-12T17:33:11.750Z,9.10
2023-02-12T17:35:39.185Z,9.00
2023-02-12T17:38:06.454Z,9.40
2023-02-12T17:40:36.391Z,9.10
2023-02-12T17:43:04.422Z,9.10
2023-02-12T17:45:31.914Z,9.10
2023-02-12T17:47:58.974Z,9.00
2023-02-12T17:50:25.689Z,9.00
2023-02-12T17:52:52.395Z,8.90
2023-02-12T17:55:19.103Z,9.00
2023-02-12T17:57:45.686Z,9.10
2023-02-12T18:00:13.984Z,9.00
2023-02-12T18:02:40.788Z,9.10
2023-02-12T18:05:08.020Z,9.00
2023-02-12T18:07:35.734Z,9.00
2023-02-12T18:10:02.476Z,9.00
2023-02-12T18:12:31.518Z,9.00
2023-02-12T18:15:00.310Z,8.90
2023-02-12T18:17:27.567Z,8.90
2023-02-12T18:19:55.099Z,8.90
2023-02-12T18:22:21.920Z,8.90
2023-02-12T18:24:48.801Z,9.00
2023-02-12T18:27:18.401Z,9.00
2023-02-12T18:29:45.516Z,9.00
2023-02-12T18:32:15.831Z,9.00
2023-02-12T18:34:43.696Z,9.00
2023-02-12T18:37:12.563Z,8.90
2023-02-12T18:39:39.445Z,9.00
2023-02-12T18:42:06.753Z,9.10
2023-02-12T18:44:33.470Z,9.10
2023-02-12T18:47:00.179Z,9.10
2023-02-12T18:49:28.128Z,9.10
2023-02-12T18:51:55.140Z,9.20
2023-02-12T18:54:21.848Z,7.60
2023-02-12T18:56:51.817Z,9.20
2023-02-12T18:59:18.992Z,9.10
2023-02-12T19:01:47.297Z,9.10
2023-02-12T19:04:16.026Z,9.10
2023-02-12T19:06:46.432Z,9.20
2023-02-12T19:09:16.571Z,9.20
2023-02-12T19:11:44.504Z,9.10
2023-02-12T19:14:11.985Z,9.10
2023-02-12T19:16:39.439Z,9.10
2023-02-12T19:19:06.542Z,9.10
2023-02-12T19:21:33.378Z,9.20
2023-02-12T19:24:01.686Z,9.20
2023-02-12T19:26:29.715Z,9.20
2023-02-12T19:28:57.597Z,9.20
2023-02-12T19:31:34.449Z,9.20
2023-02-12T19:34:05.621Z,9.20
2023-02-12T19:36:35.125Z,9.10
2023-02-12T19:39:02.443Z,9.00
2023-02-12T19:41:30.278Z,9.10
2023-02-12T19:43:59.679Z,9.00
2023-02-12T19:46:29.525Z,9.00
2023-02-12T19:48:59.426Z,9.10
2023-02-12T19:51:27.697Z,9.10
2023-02-12T19:53:54.369Z,9.10
2023-02-12T19:56:21.002Z,9.20
2023-02-12T19:58:47.607Z,9.60
2023-02-12T20:01:20.362Z,9.00
2023-02-12T20:03:48.777Z,8.90
2023-02-12T20:06:22.413Z,9.00
2023-02-12T20:08:49.483Z,10.90
2023-02-12T20:11:19.442Z,9.10
2023-02-12T20:13:46.520Z,9.10
2023-02-12T20:16:16.638Z,9.10
2023-02-12T20:18:48.097Z,9.20
2023-02-12T20:21:24.344Z,9.20
2023-02-12T20:23:51.538Z,9.20
2023-02-12T20:26:19.867Z,9.20
2023-02-12T20:28:47.639Z,9.20
2023-02-12T20:31:18.072Z,9.20
2023-02-12T20:33:45.531Z,9.30
2023-02-12T20:36:13.673Z,9.40
2023-02-12T20:38:42.675Z,9.30
2023-02-12T20:41:10.882Z,9.30
2023-02-12T20:43:38.599Z,9.10
2023-02-12T20:46:11.032Z,9.20
2023-02-12T20:48:37.890Z,9.20
2023-02-12T20:51:06.588Z,9.30
2023-02-12T20:53:34.527Z,9.10
2023-02-12T20:56:09.822Z,9.00
2023-02-12T20:58:38.238Z,9.10
2023-02-12T21:01:09.890Z,9.20
2023-02-12T21:03:37.052Z,9.30
2023-02-12T21:06:04.267Z,9.20
2023-02-12T21:08:34.713Z,9.10
2023-02-12T21:11:02.976Z,9.20
2023-02-12T21:13:29.637Z,9.30
2023-02-12T21:16:11.415Z,9.30
2023-02-12T21:18:38.344Z,9.40
2023-02-12T21:21:07.563Z,9.30
2023-02-12T21:23:35.130Z,9.30
2023-02-12T21:26:07.283Z,9.30
2023-02-12T21:28:34.263Z,9.30
2023-02-12T21:31:11.323Z,9.20
2023-02-12T21:33:40.107Z,9.20
2023-02-12T21:36:13.747Z,9.10
2023-02-12T21:38:43.182Z,9.10
2023-02-12T21:41:13.065Z,9.10
2023-02-12T21:43:41.546Z,9.10
2023-02-12T21:46:09.451Z,9.20
2023-02-12T21:48:38.965Z,9.20
2023-02-12T21:51:06.190Z,9.20
2023-02-12T21:53:32.817Z,9.20
2023-02-12T21:56:03.899Z,9.20
2023-02-12T21:58:30.622Z,9.30
2023-02-12T22:00:57.579Z,9.30
2023-02-12T22:03:24.301Z,9.40
2023-02-12T22:05:50.914Z,9.40
2023-02-12T22:08:17.591Z,9.30
2023-02-12T22:10:44.186Z,9.30
2023-02-12T22:13:10.804Z,9.30
2023-02-12T22:15:37.381Z,9.30
2023-02-12T22:18:04.135Z,8.70
2023-02-12T22:20:30.739Z,9.20
2023-02-12T22:22:58.237Z,9.20
2023-02-12T22:25:24.858Z,9.20
2023-02-12T22:27:51.534Z,9.30
2023-02-12T22:30:18.445Z,9.30
2023-02-12T22:32:45.285Z,9.10
2023-02-12T22:35:11.940Z,9.10
2023-02-12T22:37:42.253Z,9.30
2023-02-12T22:40:10.134Z,9.30
2023-02-12T22:42:36.874Z,9.30
2023-02-12T22:45:03.725Z,9.30
2023-02-12T22:47:32.026Z,9.20
2023-02-12T22:49:59.672Z,9.20
2023-02-12T22:52:27.490Z,9.20
2023-02-12T22:54:54.546Z,9.20
2023-02-12T22:57:21.272Z,9.30
2023-02-12T22:59:49.167Z,9.20
2023-02-12T23:02:16.110Z,9.10
2023-02-12T23:04:42.751Z,9.00
2023-02-12T23:07:09.440Z,8.90
2023-02-12T23:09:36.055Z,8.90
2023-02-12T23:12:07.390Z,8.90
2023-02-12T23:14:36.025Z,8.80
2023-02-12T23:17:04.272Z,8.90
2023-02-12T23:19:31.117Z,8.80
2023-02-12T23:21:58.298Z,8.90
2023-02-12T23:24:25.767Z,8.90
2023-02-12T23:26:53.774Z,9.00
2023-02-12T23:29:20.654Z,8.90
2023-02-12T23:31:47.547Z,8.90
2023-02-12T23:34:14.622Z,8.90
2023-02-12T23:36:41.273Z,8.80
2023-02-12T23:39:10.374Z,8.80
2023-02-12T23:41:37.040Z,8.80
2023-02-12T23:44:04.423Z,8.80
2023-02-12T23:46:31.361Z,8.90
2023-02-12T23:48:57.983Z,8.90
2023-02-12T23:51:24.623Z,8.90
2023-02-12T23:53:51.272Z,8.80
2023-02-12T23:56:17.858Z,8.80
2023-02-12T23:58:44.561Z,8.80
